Time;durP1;ratioP1;P1;durP2;ratioP2;P2;SDS_P1;SDS_P2;PMS_P1;PMS_P2;Temp;Humidity;BMP_temperature;BMP_pressure;BME280_temperature;BME280_humidity;BME280_pressure;Samples;Min_cycle;Max_cycle;Signal;HPM_P1;HPM_P2
2022/05/07 00:01:11;;;;;;;1.73;0.47;;;12.90;92.20;;;;;;5088644;28;20376;-82
2022/05/07 00:03:38;;;;;;;0.70;0.50;;;12.80;93.40;;;;;;5090753;28;20436;-83
2022/05/07 00:06:05;;;;;;;0.90;0.43;;;12.90;94.30;;;;;;5108165;28;20375;-80
2022/05/07 00:08:32;;;;;;;3.20;0.60;;;13.00;94.20;;;;;;5103496;28;20377;-80
2022/05/07 00:11:02;;;;;;;1.10;0.60;;;13.10;92.80;;;;;;5088216;28;20790;-83
2022/05/07 00:13:29;;;;;;;1.42;0.60;;;13.20;92.50;;;;;;5089040;28;20380;-80
2022/05/07 00:18:42;;;;;;;0.95;0.50;;;13.20;92.30;;;;;;5088485;28;20383;-82
2022/05/07 00:21:09;;;;;;;1.17;0.50;;;13.20;91.20;;;;;;5086889;28;20395;-82
2022/05/07 00:23:37;;;;;;;0.85;0.50;;;13.10;91.00;;;;;;5076943;28;20384;-81
2022/05/07 00:26:04;;;;;;;2.08;0.70;;;13.10;92.00;;;;;;5088601;28;20398;-82
2022/05/07 00:28:32;;;;;;;1.37;0.50;;;13.20;93.90;;;;;;5088356;28;20376;-81
2022/05/07 00:30:59;;;;;;;1.85;0.60;;;13.30;94.90;;;;;;5088201;28;20430;-82
2022/05/07 00:33:26;;;;;;;1.00;0.60;;;13.50;94.10;;;;;;5086972;28;20404;-80
2022/05/07 00:35:53;;;;;;;1.42;0.60;;;13.60;92.50;;;;;;5089467;28;20801;-81
2022/05/07 00:38:20;;;;;;;2.10;0.75;;;13.60;91.80;;;;;;5088761;28;20380;-80
2022/05/07 00:40:47;;;;;;;2.75;0.80;;;13.60;92.60;;;;;;5088163;28;20938;-81
2022/05/07 00:43:15;;;;;;;1.48;0.80;;;13.80;92.00;;;;;;5095115;28;20378;-81
2022/05/07 00:45:50;;;;;;;1.60;0.80;;;13.80;92.20;;;;;;5097236;28;20385;-84
2022/05/07 00:48:17;;;;;;;0.70;0.70;;;13.90;92.50;;;;;;5067692;28;20485;-81
2022/05/07 00:53:32;;;;;;;2.20;0.60;;;14.20;92.60;;;;;;5091843;28;20391;-83
2022/05/07 00:55:59;;;;;;;1.08;0.60;;;14.40;91.60;;;;;;5087077;28;20397;-82
2022/05/07 00:58:26;;;;;;;2.25;0.77;;;14.50;89.70;;;;;;5087576;28;20418;-83
2022/05/07 01:00:53;;;;;;;1.15;0.70;;;14.40;88.50;;;;;;5089205;28;20419;-82
2022/05/07 01:03:21;;;;;;;2.15;0.70;;;14.40;91.10;;;;;;5089578;28;20387;-82
2022/05/07 01:05:48;;;;;;;2.92;0.70;;;14.50;91.10;;;;;;5087428;28;20380;-81
2022/05/07 01:08:15;;;;;;;1.60;0.60;;;14.70;91.00;;;;;;5092433;28;20389;-82
2022/05/07 01:10:43;;;;;;;1.95;0.55;;;14.80;90.60;;;;;;5104264;27;20789;-82
2022/05/07 01:13:10;;;;;;;1.23;0.60;;;14.90;90.40;;;;;;5086793;28;20401;-83
2022/05/07 01:15:47;;;;;;;1.80;0.73;;;14.90;87.30;;;;;;5089178;28;20379;-82
2022/05/07 01:18:15;;;;;;;2.00;0.60;;;15.10;90.00;;;;;;5087438;28;20380;-81
2022/05/07 01:20:43;;;;;;;1.37;0.50;;;15.30;88.50;;;;;;5087417;28;20399;-85
2022/05/07 01:23:10;;;;;;;2.30;0.50;;;15.50;85.60;;;;;;5086927;28;20442;-83
2022/05/07 01:25:37;;;;;;;2.08;0.52;;;15.70;84.00;;;;;;5087795;28;20385;-83
2022/05/07 01:28:05;;;;;;;2.72;0.57;;;16.00;84.80;;;;;;5087799;28;20375;-82
2022/05/07 01:30:33;;;;;;;1.10;0.53;;;16.30;83.90;;;;;;5088278;28;20485;-82
2022/05/07 01:33:04;;;;;;;1.58;0.50;;;16.60;79.70;;;;;;5088536;28;21356;-82
2022/05/07 01:35:31;;;;;;;1.88;0.60;;;16.80;82.70;;;;;;5095754;28;20453;-82
2022/05/07 01:37:58;;;;;;;1.60;0.60;;;16.90;77.40;;;;;;5106487;28;20406;-82
2022/05/07 01:40:25;;;;;;;3.20;0.60;;;16.40;77.80;;;;;;5108297;28;20444;-81
2022/05/07 01:42:52;;;;;;;2.30;0.60;;;16.30;80.20;;;;;;5107550;28;20384;-79
2022/05/07 01:45:19;;;;;;;0.63;0.33;;;16.20;77.70;;;;;;5106440;28;21194;-80
2022/05/07 01:50:31;;;;;;;1.20;0.50;;;16.90;75.20;;;;;;5103915;28;20395;-81
2022/05/07 01:52:58;;;;;;;2.55;0.70;;;17.50;73.30;;;;;;5105771;28;20404;-81
2022/05/07 01:55:25;;;;;;;1.55;0.50;;;17.70;74.20;;;;;;5096731;28;20368;-82
2022/05/07 01:57:52;;;;;;;2.25;0.50;;;17.80;72.70;;;;;;5087293;28;20779;-81
2022/05/07 02:00:19;;;;;;;3.72;0.80;;;17.60;73.50;;;;;;5105578;28;20382;-79
2022/05/07 02:02:46;;;;;;;1.40;0.65;;;17.60;75.20;;;;;;5094619;28;20388;-80
2022/05/07 02:05:13;;;;;;;0.98;0.50;;;17.80;75.10;;;;;;5087137;28;20395;-82
2022/05/07 02:07:40;;;;;;;0.60;0.45;;;18.20;69.80;;;;;;5089185;28;20387;-83
2022/05/07 02:10:07;;;;;;;1.15;0.47;;;18.20;71.60;;;;;;5089006;28;20817;-81
2022/05/07 02:12:34;;;;;;;1.42;0.50;;;18.00;70.70;;;;;;5096280;28;20898;-81
2022/05/07 02:15:01;;;;;;;1.85;0.60;;;18.30;69.50;;;;;;5088111;28;20395;-81
2022/05/07 02:17:28;;;;;;;0.90;0.50;;;18.40;67.40;;;;;;5086238;28;20384;-82
2022/05/07 02:19:55;;;;;;;0.70;0.50;;;18.30;66.10;;;;;;5086740;28;20461;-81
2022/05/07 02:22:22;;;;;;;1.10;0.50;;;18.20;65.70;;;;;;5086732;28;20384;-82
2022/05/07 02:24:50;;;;;;;1.77;0.60;;;17.80;67.30;;;;;;5087872;28;20379;-81
2022/05/07 02:27:17;;;;;;;1.70;0.50;;;17.60;68.00;;;;;;5090307;28;20380;-82
2022/05/07 02:29:44;;;;;;;2.40;0.52;;;17.50;68.60;;;;;;5099049;28;20398;-84
2022/05/07 02:32:13;;;;;;;1.08;0.63;;;17.30;69.10;;;;;;5090680;28;20445;-83
2022/05/07 02:34:42;;;;;;;1.23;0.60;;;17.30;70.40;;;;;;5090733;28;20372;-81
2022/05/07 02:37:09;;;;;;;1.73;0.47;;;17.50;70.20;;;;;;5090876;28;20463;-83
2022/05/07 02:39:37;;;;;;;0.70;0.52;;;17.80;65.50;;;;;;5090601;28;20382;-81
2022/05/07 02:44:50;;;;;;;2.25;0.50;;;17.90;64.90;;;;;;5101542;28;20434;-83
2022/05/07 02:47:17;;;;;;;0.50;0.40;;;17.80;65.20;;;;;;5090434;28;20376;-82
2022/05/07 02:49:45;;;;;;;1.90;0.60;;;17.00;65.00;;;;;;5089909;28;20396;-82
2022/05/07 02:52:11;;;;;;;2.83;0.45;;;17.60;67.10;;;;;;5090036;28;20407;-83
2022/05/07 02:54:39;;;;;;;1.55;0.50;;;17.70;66.80;;;;;;5088815;28;20467;-83
2022/05/07 02:57:06;;;;;;;1.45;0.50;;;18.20;64.20;;;;;;5090123;28;20404;-82
2022/05/07 02:59:33;;;;;;;1.70;0.50;;;18.40;62.80;;;;;;5107684;28;20383;-82
2022/05/07 03:02:00;;;;;;;1.48;0.50;;;18.30;64.70;;;;;;5094292;28;20441;-81
2022/05/07 03:04:27;;;;;;;1.55;0.50;;;18.50;65.80;;;;;;5091425;28;20380;-81
2022/05/07 03:06:54;;;;;;;2.50;0.52;;;19.00;61.80;;;;;;5091012;28;20376;-83
2022/05/07 03:09:21;;;;;;;1.45;0.50;;;19.20;59.30;;;;;;5089970;28;20857;-81
2022/05/07 03:11:49;;;;;;;1.80;0.40;;;19.10;59.20;;;;;;5088957;28;20888;-82
2022/05/07 03:14:16;;;;;;;0.90;0.40;;;19.20;61.40;;;;;;5090270;28;20733;-82
2022/05/07 03:16:43;;;;;;;1.67;0.40;;;19.50;61.40;;;;;;5089781;28;20384;-84
2022/05/07 03:19:10;;;;;;;1.15;0.30;;;19.60;55.40;;;;;;5089572;28;20424;-81
2022/05/07 03:21:37;;;;;;;2.10;0.37;;;19.60;53.40;;;;;;5089807;28;20459;-84
2022/05/07 03:24:04;;;;;;;3.73;0.30;;;19.70;55.10;;;;;;5089213;28;20467;-83
2022/05/07 03:26:31;;;;;;;0.40;0.20;;;19.70;52.40;;;;;;5089520;28;20372;-80
2022/05/07 03:28:59;;;;;;;0.40;0.30;;;20.00;53.30;;;;;;5101385;28;20450;-83
2022/05/07 03:31:27;;;;;;;2.10;0.35;;;19.80;53.80;;;;;;5109610;28;20481;-84
2022/05/07 03:33:54;;;;;;;0.90;0.30;;;19.60;53.30;;;;;;5108737;28;20413;-82
2022/05/07 03:36:21;;;;;;;1.48;0.30;;;19.40;54.20;;;;;;5109314;28;20445;-83
2022/05/07 03:38:48;;;;;;;2.38;0.30;;;19.40;51.80;;;;;;5111075;28;20829;-82
2022/05/07 03:41:15;;;;;;;0.73;0.35;;;19.80;51.20;;;;;;5090299;28;20881;-83
2022/05/07 03:43:42;;;;;;;1.75;0.32;;;20.10;51.10;;;;;;5106078;28;20391;-83
2022/05/07 03:46:09;;;;;;;1.40;0.30;;;20.30;51.70;;;;;;5076362;28;20391;-82
2022/05/07 03:48:37;;;;;;;1.20;0.30;;;20.60;50.40;;;;;;5089235;28;20372;-84
2022/05/07 03:51:04;;;;;;;2.35;0.30;;;20.20;49.00;;;;;;5089277;28;20456;-83
2022/05/07 03:53:31;;;;;;;0.60;0.28;;;20.00;48.90;;;;;;5088401;28;20508;-82
2022/05/07 03:56:06;;;;;;;1.00;0.20;;;20.10;50.50;;;;;;5089767;28;20373;-83
2022/05/07 03:58:35;;;;;;;1.30;0.38;;;20.10;50.80;;;;;;5069401;28;20723;-83
2022/05/07 04:01:03;;;;;;;0.63;0.30;;;19.90;49.90;;;;;;5080324;28;20400;-83
2022/05/07 04:03:30;;;;;;;0.57;0.30;;;19.80;49.50;;;;;;5093758;28;20393;-84
2022/05/07 04:05:59;;;;;;;2.38;0.30;;;19.90;48.80;;;;;;5095895;28;20765;-85
2022/05/07 04:08:28;;;;;;;1.33;0.20;;;19.90;49.50;;;;;;5109345;28;20387;-82
2022/05/07 04:10:55;;;;;;;0.60;0.40;;;19.80;49.40;;;;;;5114677;28;20373;-85
2022/05/07 04:13:22;;;;;;;27.85;2.78;;;20.10;51.00;;;;;;5093588;28;20415;-84
2022/05/07 04:15:50;;;;;;;3.92;0.85;;;19.80;49.30;;;;;;5086627;28;20395;-83
2022/05/07 04:18:17;;;;;;;2.28;0.73;;;19.70;49.50;;;;;;5087717;28;20403;-84
2022/05/07 04:20:43;;;;;;;16.67;4.10;;;19.20;50.00;;;;;;5102605;28;20422;-85
2022/05/07 04:23:11;;;;;;;2.35;0.40;;;19.20;52.00;;;;;;5098756;28;20894;-83
2022/05/07 04:25:38;;;;;;;1.63;0.20;;;19.40;50.90;;;;;;5091900;28;20382;-85
2022/05/07 04:28:05;;;;;;;1.50;0.40;;;19.80;50.50;;;;;;5108542;28;20420;-83
2022/05/07 04:30:32;;;;;;;0.95;0.45;;;19.70;49.50;;;;;;5108591;28;20397;-83
2022/05/07 04:32:59;;;;;;;3.78;1.40;;;19.70;50.10;;;;;;5108677;28;20413;-82
2022/05/07 04:35:27;;;;;;;1.20;0.60;;;19.70;49.50;;;;;;5108504;28;20367;-83
2022/05/07 04:37:54;;;;;;;0.43;0.30;;;19.50;49.30;;;;;;5108525;28;20403;-83
2022/05/07 04:40:21;;;;;;;0.90;0.20;;;19.90;50.70;;;;;;5092915;28;20380;-83
2022/05/07 04:42:48;;;;;;;24.10;3.00;;;20.00;48.70;;;;;;5108594;28;20382;-82
2022/05/07 04:45:15;;;;;;;6.25;2.22;;;20.10;50.40;;;;;;5096164;28;20384;-82
2022/05/07 04:47:42;;;;;;;0.90;0.30;;;20.30;48.10;;;;;;5087105;28;20381;-81
2022/05/07 04:50:09;;;;;;;1.00;0.20;;;20.70;47.70;;;;;;5087788;28;20400;-81
2022/05/07 04:52:38;;;;;;;0.40;0.30;;;21.30;47.40;;;;;;5086617;28;20396;-81
2022/05/07 04:55:06;;;;;;;1.20;0.20;;;21.00;47.90;;;;;;5095470;28;20382;-83
2022/05/07 04:57:33;;;;;;;6.30;0.70;;;21.30;47.40;;;;;;5108585;28;20381;-83
2022/05/07 05:00:01;;;;;;;1.35;0.40;;;21.20;48.70;;;;;;5108089;28;20398;-82
2022/05/07 05:02:28;;;;;;;0.85;0.32;;;20.80;48.90;;;;;;5108324;28;20462;-82
2022/05/07 05:04:55;;;;;;;2.05;0.30;;;20.20;49.70;;;;;;5108031;28;20382;-82
2022/05/07 05:07:22;;;;;;;1.27;0.30;;;19.70;48.90;;;;;;5108170;28;20375;-83
2022/05/07 05:09:49;;;;;;;0.77;0.30;;;19.60;49.80;;;;;;5106772;28;20391;-83
2022/05/07 05:12:17;;;;;;;0.60;0.20;;;19.50;49.80;;;;;;5107932;28;20406;-83
2022/05/07 05:17:31;;;;;;;1.52;0.40;;;19.10;50.70;;;;;;5087698;28;20547;-85
2022/05/07 05:19:59;;;;;;;0.85;0.30;;;19.00;53.80;;;;;;5087506;28;20375;-85
2022/05/07 05:22:26;;;;;;;1.73;0.40;;;19.10;51.10;;;;;;5090661;28;20389;-86
2022/05/07 05:24:53;;;;;;;1.98;0.50;;;19.20;50.60;;;;;;5105845;28;20370;-83
2022/05/07 05:27:21;;;;;;;0.40;0.40;;;19.10;51.60;;;;;;5095698;28;20852;-84
2022/05/07 05:29:48;;;;;;;2.13;0.30;;;19.10;50.70;;;;;;5086005;28;20445;-84
2022/05/07 05:32:18;;;;;;;1.40;0.40;;;19.10;50.40;;;;;;5087235;28;20435;-82
2022/05/07 05:34:53;;;;;;;1.60;0.50;;;19.00;51.20;;;;;;5087207;28;20371;-85
2022/05/07 05:37:20;;;;;;;1.52;0.47;;;18.80;51.70;;;;;;5087335;28;20414;-85
2022/05/07 05:39:47;;;;;;;0.52;0.30;;;18.80;52.80;;;;;;5087264;28;20412;-86
2022/05/07 05:42:14;;;;;;;0.38;0.30;;;18.70;52.10;;;;;;5087167;28;20387;-85
2022/05/07 05:44:42;;;;;;;0.47;0.30;;;18.60;51.20;;;;;;5086839;28;20376;-84
2022/05/07 05:47:10;;;;;;;0.50;0.50;;;18.50;52.00;;;;;;5086935;28;20379;-85
2022/05/07 05:49:37;;;;;;;1.70;0.30;;;18.40;52.30;;;;;;5086893;28;20379;-86
2022/05/07 05:52:06;;;;;;;0.50;0.30;;;18.40;52.70;;;;;;5087157;28;20400;-86
2022/05/07 05:54:34;;;;;;;0.90;0.30;;;18.30;52.60;;;;;;5087091;28;20361;-85
2022/05/07 05:57:01;;;;;;;1.17;0.30;;;18.30;53.50;;;;;;5086831;28;20381;-86
2022/05/07 05:59:28;;;;;;;0.50;0.30;;;18.30;52.50;;;;;;5087895;28;20455;-85
2022/05/07 06:01:55;;;;;;;1.40;0.30;;;18.30;52.40;;;;;;5091129;28;20879;-85
2022/05/07 06:04:23;;;;;;;0.80;0.30;;;18.20;53.00;;;;;;5091059;28;20364;-84
2022/05/07 06:06:50;;;;;;;0.35;0.30;;;16.90;53.20;;;;;;5091133;28;20395;-85
2022/05/07 06:09:17;;;;;;;2.00;0.30;;;17.90;53.40;;;;;;5090837;28;20403;-85
2022/05/07 06:11:47;;;;;;;1.20;0.30;;;17.90;54.10;;;;;;5090773;28;20409;-86
2022/05/07 06:14:14;;;;;;;1.20;0.40;;;17.80;54.10;;;;;;5090519;28;20463;-84
2022/05/07 06:16:41;;;;;;;1.25;0.25;;;17.80;54.40;;;;;;5090902;28;20372;-84
2022/05/07 06:19:08;;;;;;;0.52;0.30;;;17.70;53.70;;;;;;5090734;28;20461;-85
2022/05/07 06:21:35;;;;;;;1.67;0.40;;;17.60;53.80;;;;;;5090907;28;20495;-85
2022/05/07 06:29:33;;;;;;;1.35;0.50;;;17.40;54.80;;;;;;5090433;28;20395;-85
2022/05/07 06:32:00;;;;;;;1.83;0.50;;;17.30;54.90;;;;;;5090677;28;20447;-88
2022/05/07 06:34:27;;;;;;;0.93;0.50;;;17.20;54.90;;;;;;5095522;28;20386;-81
2022/05/07 06:36:54;;;;;;;1.33;0.50;;;17.20;55.10;;;;;;5097962;28;20794;-83
2022/05/07 06:39:22;;;;;;;2.83;0.40;;;17.20;54.40;;;;;;5090262;28;20368;-86
2022/05/07 06:41:50;;;;;;;0.82;0.40;;;17.00;55.70;;;;;;5090584;28;20823;-83
2022/05/07 06:44:17;;;;;;;1.17;0.43;;;16.80;56.40;;;;;;5094258;28;20392;-87
2022/05/07 06:46:44;;;;;;;1.73;0.40;;;16.70;56.30;;;;;;5090300;28;20384;-88
2022/05/07 06:49:12;;;;;;;1.75;0.70;;;16.60;55.20;;;;;;5090414;28;20459;-87
2022/05/07 06:51:39;;;;;;;2.10;0.70;;;16.50;55.10;;;;;;5094136;28;20398;-86
2022/05/07 06:54:08;;;;;;;6.82;1.10;;;16.40;55.00;;;;;;5111411;28;20383;-89
2022/05/07 06:56:36;;;;;;;2.85;0.60;;;16.30;55.20;;;;;;5108711;28;20447;-86
2022/05/07 06:59:03;;;;;;;4.63;0.80;;;16.20;55.30;;;;;;5091202;28;20376;-86
2022/05/07 07:01:30;;;;;;;2.67;0.60;;;16.20;55.40;;;;;;5090253;28;20380;-87
2022/05/07 07:03:57;;;;;;;1.80;0.60;;;16.10;55.80;;;;;;5099311;28;20394;-88
2022/05/07 07:06:24;;;;;;;2.77;0.83;;;16.00;57.20;;;;;;5110822;28;20366;-90
2022/05/07 07:08:56;;;;;;;0.90;0.60;;;15.90;56.90;;;;;;5111447;28;20431;-89
2022/05/07 07:11:25;;;;;;;1.40;0.52;;;15.70;57.40;;;;;;5106081;28;20396;-87
2022/05/07 07:13:52;;;;;;;1.17;0.70;;;15.50;57.80;;;;;;5089643;28;20376;-87
2022/05/07 07:16:19;;;;;;;3.50;1.58;;;15.50;58.70;;;;;;5097126;28;20771;-87
2022/05/07 07:18:46;;;;;;;5.13;3.25;;;15.40;58.80;;;;;;5090230;28;20476;-84
2022/05/07 07:21:13;;;;;;;3.30;2.30;;;15.40;59.30;;;;;;5095090;28;20445;-83
2022/05/07 07:23:40;;;;;;;1.70;1.10;;;15.30;59.50;;;;;;5095276;28;20385;-83
2022/05/07 07:26:07;;;;;;;2.35;0.90;;;15.20;59.30;;;;;;5110384;28;20399;-88
2022/05/07 07:28:34;;;;;;;1.27;0.80;;;15.20;59.50;;;;;;5110907;28;20378;-85
2022/05/07 07:31:01;;;;;;;1.88;0.80;;;15.10;59.80;;;;;;5109596;28;20411;-89
2022/05/07 07:33:28;;;;;;;2.40;0.68;;;15.00;59.90;;;;;;5110830;28;20385;-84
2022/05/07 07:35:55;;;;;;;7.32;6.60;;;15.00;60.00;;;;;;5109915;28;20382;-85
2022/05/07 07:38:22;;;;;;;2.92;1.45;;;14.90;60.70;;;;;;5109541;28;20459;-88
2022/05/07 07:40:50;;;;;;;2.95;1.00;;;14.80;60.90;;;;;;5113276;28;20400;-87
2022/05/07 07:43:20;;;;;;;2.05;1.00;;;14.70;61.90;;;;;;5110234;28;20784;-87
2022/05/07 07:48:32;;;;;;;2.58;1.13;;;14.50;62.00;;;;;;5103206;28;20373;-87
2022/05/07 07:50:59;;;;;;;3.75;1.08;;;14.50;62.90;;;;;;5109344;28;20384;-85
2022/05/07 07:53:26;;;;;;;2.25;1.30;;;14.40;62.70;;;;;;5101925;28;20405;-86
2022/05/07 07:55:53;;;;;;;2.05;1.20;;;14.30;63.50;;;;;;5089368;28;20783;-86
2022/05/07 07:58:21;;;;;;;4.37;1.80;;;14.20;63.40;;;;;;5102351;28;20390;-85
2022/05/07 08:00:48;;;;;;;2.80;1.42;;;14.10;63.20;;;;;;5113851;28;20454;-84
2022/05/07 08:03:16;;;;;;;2.55;1.40;;;14.10;63.70;;;;;;5101939;28;20390;-85
2022/05/07 08:05:46;;;;;;;2.90;2.40;;;14.10;64.30;;;;;;5112762;28;20393;-83
2022/05/07 08:13:46;;;;;;;2.40;1.10;;;14.20;64.10;;;;;;5125828;28;20520;-86
2022/05/07 08:16:15;;;;;;;2.38;1.20;;;14.20;64.10;;;;;;5114897;28;20383;-83
2022/05/07 08:18:42;;;;;;;2.47;1.52;;;14.20;64.60;;;;;;5106472;28;20403;-84
2022/05/07 08:21:11;;;;;;;2.40;1.50;;;14.10;65.30;;;;;;5104803;28;20368;-84
2022/05/07 08:23:39;;;;;;;1.75;1.20;;;14.00;64.90;;;;;;5091565;28;20931;-83
2022/05/07 08:26:07;;;;;;;1.67;1.13;;;14.00;65.40;;;;;;5089501;28;20440;-82
2022/05/07 08:28:38;;;;;;;3.72;1.52;;;13.90;65.40;;;;;;5091324;28;20384;-84
2022/05/07 08:31:07;;;;;;;2.10;1.60;;;13.90;65.50;;;;;;5089158;28;20824;-85
2022/05/07 08:33:36;;;;;;;1.85;1.65;;;14.00;65.60;;;;;;5089252;28;20442;-86
2022/05/07 08:36:03;;;;;;;2.20;1.40;;;14.00;65.50;;;;;;5089488;28;20391;-86
2022/05/07 08:38:30;;;;;;;3.88;1.67;;;13.90;65.30;;;;;;5088013;28;20442;-84
2022/05/07 08:41:02;;;;;;;2.55;1.65;;;13.90;65.30;;;;;;5088199;28;20381;-86
2022/05/07 08:43:36;;;;;;;3.22;1.90;;;13.90;66.70;;;;;;5095516;28;20386;-85
2022/05/07 08:46:14;;;;;;;2.50;1.40;;;13.90;67.90;;;;;;5089326;28;20733;-86
2022/05/07 08:48:45;;;;;;;2.05;1.60;;;13.80;67.10;;;;;;5090695;28;20899;-90
2022/05/07 08:51:14;;;;;;;1.92;1.67;;;13.70;67.50;;;;;;5088451;28;20483;-88
2022/05/07 08:53:43;;;;;;;2.13;1.50;;;13.70;67.40;;;;;;5088880;28;20419;-88
2022/05/07 08:56:11;;;;;;;2.80;1.70;;;13.70;67.20;;;;;;5088657;28;20373;-85
2022/05/07 08:58:38;;;;;;;2.10;1.52;;;13.70;67.70;;;;;;5069786;28;20382;-84
2022/05/07 09:01:06;;;;;;;3.33;1.55;;;13.60;67.90;;;;;;5090783;28;20380;-87
2022/05/07 09:03:43;;;;;;;3.50;1.70;;;13.60;67.70;;;;;;5090541;28;20380;-85
2022/05/07 09:06:27;;;;;;;2.22;1.40;;;13.60;67.60;;;;;;5089898;28;20380;-84
2022/05/07 09:08:56;;;;;;;1.80;1.30;;;13.50;66.90;;;;;;5092329;28;20392;-86
2022/05/07 09:11:26;;;;;;;3.45;1.30;;;13.50;67.90;;;;;;5090085;28;20382;-89
2022/05/07 09:14:06;;;;;;;2.00;1.27;;;13.50;67.70;;;;;;5091794;28;20933;-89
2022/05/07 09:16:48;;;;;;;2.20;1.27;;;13.60;67.50;;;;;;5088544;28;20373;-87
2022/05/07 09:19:24;;;;;;;1.73;1.20;;;13.50;67.60;;;;;;5088670;28;20850;-88
2022/05/07 09:21:54;;;;;;;2.10;1.10;;;13.50;68.10;;;;;;5088442;28;20376;-87
2022/05/07 09:24:22;;;;;;;1.80;1.17;;;13.50;69.00;;;;;;5091899;28;20409;-85
2022/05/07 09:26:49;;;;;;;1.48;0.90;;;13.50;68.50;;;;;;5108279;28;20369;-87
2022/05/07 09:29:16;;;;;;;2.55;1.20;;;13.50;68.70;;;;;;5107890;28;20721;-86
2022/05/07 09:31:44;;;;;;;2.17;1.25;;;13.50;68.80;;;;;;5109787;28;20420;-83
2022/05/07 09:37:02;;;;;;;1.53;1.20;;;13.50;69.40;;;;;;5089738;28;20406;-86
2022/05/07 09:39:35;;;;;;;2.10;1.30;;;13.50;70.10;;;;;;5089454;28;20380;-84
2022/05/07 09:42:03;;;;;;;2.53;1.25;;;13.40;70.90;;;;;;5089237;28;20384;-86
2022/05/07 09:44:31;;;;;;;2.27;1.20;;;13.30;70.60;;;;;;5089640;28;20376;-83
2022/05/07 09:46:59;;;;;;;2.50;1.30;;;13.20;71.20;;;;;;5089899;28;20377;-89
2022/05/07 09:49:28;;;;;;;2.92;1.40;;;13.20;71.50;;;;;;5090583;28;20372;-89
2022/05/07 09:51:56;;;;;;;2.40;1.20;;;13.20;73.10;;;;;;5089423;28;20419;-89
2022/05/07 10:00:01;;;;;;;2.63;1.42;;;12.70;74.30;;;;;;5091267;28;20433;-90
2022/05/07 10:02:46;;;;;;;4.03;2.97;;;12.50;76.60;;;;;;5090006;28;20929;-87
2022/05/07 10:05:31;;;;;;;4.10;3.33;;;12.50;77.90;;;;;;5089610;28;20815;-86
2022/05/07 10:08:26;;;;;;;4.82;2.50;;;12.50;78.00;;;;;;5090033;28;20449;-83
2022/05/07 10:10:54;;;;;;;3.00;2.10;;;12.50;78.80;;;;;;5090876;28;20906;-86
2022/05/07 10:13:21;;;;;;;2.42;1.80;;;12.40;80.10;;;;;;5090059;28;20396;-83
2022/05/07 10:16:00;;;;;;;2.50;1.90;;;12.30;80.60;;;;;;5090062;28;20748;-83
2022/05/07 10:18:41;;;;;;;3.33;1.90;;;12.10;83.10;;;;;;5092219;28;20407;-82
2022/05/07 10:21:18;;;;;;;4.10;1.80;;;12.10;83.90;;;;;;5102752;28;20452;-85
2022/05/07 10:23:56;;;;;;;3.20;1.90;;;12.00;85.30;;;;;;5105444;28;20387;-82
2022/05/07 10:26:37;;;;;;;3.15;2.08;;;11.90;86.70;;;;;;5092477;28;20408;-88
2022/05/07 10:29:04;;;;;;;3.63;2.22;;;11.90;86.50;;;;;;5089534;28;20403;-90
2022/05/07 10:31:33;;;;;;;4.35;2.35;;;11.90;87.10;;;;;;5088457;28;20452;-81
2022/05/07 10:34:01;;;;;;;2.42;2.05;;;11.70;87.80;;;;;;5090433;28;20958;-86
2022/05/07 10:36:37;;;;;;;2.45;2.00;;;11.70;88.40;;;;;;5088833;28;20902;-88
2022/05/07 10:39:10;;;;;;;3.00;1.80;;;11.50;89.20;;;;;;5090853;28;20463;-83
2022/05/07 10:41:47;;;;;;;4.40;2.00;;;11.50;90.30;;;;;;5090168;28;20372;-82
2022/05/07 10:44:32;;;;;;;3.97;2.10;;;11.40;91.40;;;;;;5105511;28;20384;-83
2022/05/07 10:47:12;;;;;;;3.03;1.95;;;11.30;91.90;;;;;;5102198;28;20380;-82
2022/05/07 10:49:54;;;;;;;3.13;2.00;;;11.20;92.90;;;;;;5112583;28;20386;-88
2022/05/07 10:52:34;;;;;;;2.60;2.10;;;11.20;93.70;;;;;;5108177;28;20400;-83
2022/05/07 10:55:18;;;;;;;2.65;2.13;;;11.20;94.20;;;;;;5090659;28;20384;-85
2022/05/07 10:57:47;;;;;;;2.65;2.03;;;11.10;95.50;;;;;;5092836;28;20380;-83
2022/05/07 11:00:22;;;;;;;2.90;2.05;;;11.20;95.20;;;;;;5095573;28;20468;-82
2022/05/07 11:02:56;;;;;;;3.95;2.28;;;11.40;95.10;;;;;;5091726;28;20383;-86
2022/05/07 11:05:32;;;;;;;3.17;2.30;;;11.40;95.20;;;;;;5091573;28;20368;-83
2022/05/07 11:08:02;;;;;;;3.80;2.40;;;11.70;95.30;;;;;;5092082;28;20372;-86
2022/05/07 11:10:30;;;;;;;3.90;2.55;;;11.20;95.60;;;;;;5092338;28;20407;-84
2022/05/07 11:13:08;;;;;;;5.55;3.50;;;11.10;96.30;;;;;;5100447;28;20405;-89
2022/05/07 11:15:35;;;;;;;6.13;4.30;;;11.00;97.00;;;;;;5094664;28;20376;-86
2022/05/07 11:18:11;;;;;;;4.38;3.17;;;10.90;97.90;;;;;;5092616;28;20422;-82
2022/05/07 11:20:39;;;;;;;9.43;6.10;;;10.80;98.20;;;;;;5091282;28;20841;-80
2022/05/07 11:23:06;;;;;;;7.13;4.70;;;10.80;98.80;;;;;;5091478;28;20372;-82
2022/05/07 11:25:33;;;;;;;5.93;4.30;;;10.70;98.90;;;;;;5091257;28;20860;-82
2022/05/07 11:28:00;;;;;;;7.03;4.37;;;10.60;99.50;;;;;;5091248;28;20385;-88
2022/05/07 11:30:27;;;;;;;5.10;3.80;;;10.60;99.90;;;;;;5101471;28;20395;-91
2022/05/07 11:32:55;;;;;;;6.50;3.90;;;10.60;99.90;;;;;;5100481;28;20495;-83
2022/05/07 11:35:25;;;;;;;24.85;12.75;;;10.50;99.90;;;;;;5090152;28;20376;-87
2022/05/07 11:37:52;;;;;;;54.50;29.98;;;10.50;99.90;;;;;;5089994;28;20847;-82
2022/05/07 11:40:29;;;;;;;30.77;17.30;;;10.40;99.90;;;;;;5090476;28;20423;-81
2022/05/07 11:45:41;;;;;;;12.02;7.63;;;10.30;99.90;;;;;;5100664;28;20426;-81
2022/05/07 11:48:17;;;;;;;7.63;4.73;;;10.30;99.90;;;;;;5089813;28;20405;-88
2022/05/07 11:51:07;;;;;;;5.22;3.65;;;10.30;99.90;;;;;;5094585;28;20384;-82
2022/05/07 11:53:37;;;;;;;6.13;4.00;;;10.30;99.90;;;;;;5092358;28;20396;-84
2022/05/07 11:56:11;;;;;;;7.10;4.00;;;10.20;99.90;;;;;;5090807;28;20405;-83
2022/05/07 11:58:47;;;;;;;5.05;3.42;;;10.20;99.90;;;;;;5089558;28;20409;-85
2022/05/07 12:01:28;;;;;;;5.28;3.70;;;10.20;99.90;;;;;;5090076;28;20780;-86
2022/05/07 12:03:55;;;;;;;3.42;2.38;;;10.20;99.90;;;;;;5070258;28;20393;-84
2022/05/07 12:06:27;;;;;;;4.75;3.20;;;10.20;99.90;;;;;;5069982;28;20382;-87
2022/05/07 12:08:55;;;;;;;3.70;2.30;;;10.20;99.90;;;;;;5076408;28;20575;-81
2022/05/07 12:11:22;;;;;;;4.25;2.80;;;10.20;99.90;;;;;;5101128;28;20461;-87
2022/05/07 12:13:49;;;;;;;4.63;2.50;;;10.20;99.90;;;;;;5109545;28;20437;-85
2022/05/07 12:19:22;;;;;;;3.95;2.70;;;10.10;99.90;;;;;;5047803;28;20376;-88
2022/05/07 12:30:05;;;;;;;3.95;1.92;;;10.00;99.90;;;;;;5035526;28;20885;-84
2022/05/07 12:32:32;;;;;;;4.10;2.08;;;9.90;99.90;;;;;;5046554;28;20502;-87
2022/05/07 12:34:59;;;;;;;3.55;2.00;;;9.90;99.90;;;;;;5048381;28;20385;-87
2022/05/07 12:37:26;;;;;;;3.55;1.80;;;9.80;99.90;;;;;;5046442;28;20402;-86
2022/05/07 12:39:53;;;;;;;2.83;1.60;;;9.80;99.90;;;;;;5046805;28;20390;-92
2022/05/07 12:42:20;;;;;;;2.28;1.90;;;9.80;99.90;;;;;;5046775;28;20446;-91
2022/05/07 12:44:47;;;;;;;3.50;1.63;;;9.80;99.90;;;;;;5046852;28;20457;-84
2022/05/07 12:47:17;;;;;;;3.45;1.85;;;9.70;99.90;;;;;;5045197;28;20392;-87
2022/05/07 12:49:44;;;;;;;2.35;1.85;;;9.70;99.90;;;;;;5061294;28;20377;-84
2022/05/07 12:52:11;;;;;;;3.08;1.90;;;9.60;99.90;;;;;;5089885;28;20555;-86
2022/05/07 12:54:39;;;;;;;2.28;1.80;;;9.60;99.90;;;;;;5105555;28;20370;-90
2022/05/07 12:57:06;;;;;;;3.53;1.80;;;9.60;99.90;;;;;;5104088;28;20398;-85
2022/05/07 12:59:33;;;;;;;2.97;1.97;;;9.50;99.90;;;;;;5089765;28;20455;-89
2022/05/07 13:02:06;;;;;;;5.43;2.42;;;9.50;99.90;;;;;;5088313;28;20387;-86
2022/05/07 13:04:34;;;;;;;2.70;2.30;;;9.50;99.90;;;;;;5087457;28;20408;-86
2022/05/07 13:07:01;;;;;;;4.33;2.47;;;9.50;99.90;;;;;;5088977;28;20952;-90
2022/05/07 13:09:29;;;;;;;4.18;2.40;;;9.50;99.90;;;;;;5104714;28;20402;-85
2022/05/07 13:11:59;;;;;;;2.90;2.30;;;9.50;99.90;;;;;;5093087;28;20457;-90
2022/05/07 13:14:26;;;;;;;3.38;2.28;;;9.40;99.90;;;;;;5087545;28;20399;-89
2022/05/07 13:16:54;;;;;;;3.90;2.20;;;9.40;99.90;;;;;;5087367;28;20372;-85
2022/05/07 13:19:21;;;;;;;4.33;2.40;;;9.50;99.90;;;;;;5087878;28;20902;-90
2022/05/07 13:21:48;;;;;;;4.07;2.30;;;9.40;99.90;;;;;;5088933;28;20384;-89
2022/05/07 13:24:16;;;;;;;2.85;2.40;;;9.30;99.90;;;;;;5087046;28;20399;-90
2022/05/07 13:26:42;;;;;;;4.75;2.80;;;9.30;99.90;;;;;;5100163;28;20376;-90
2022/05/07 13:29:11;;;;;;;4.13;2.53;;;9.20;99.90;;;;;;5089078;28;20395;-84
2022/05/07 13:31:38;;;;;;;4.65;3.33;;;9.20;99.90;;;;;;5087316;28;20400;-85
2022/05/07 13:34:05;;;;;;;4.28;3.00;;;9.20;99.90;;;;;;5088330;28;20441;-86
2022/05/07 13:36:33;;;;;;;5.25;3.22;;;9.20;99.90;;;;;;5087899;28;20364;-88
2022/05/07 13:39:01;;;;;;;5.85;3.25;;;9.20;99.90;;;;;;5087816;28;20798;-86
2022/05/07 13:41:28;;;;;;;5.78;3.67;;;9.30;99.90;;;;;;5088238;28;20393;-90
2022/05/07 13:43:58;;;;;;;6.47;3.50;;;9.30;99.90;;;;;;5090983;28;20390;-84
2022/05/07 13:46:25;;;;;;;6.83;3.70;;;9.20;99.90;;;;;;5108120;28;20374;-85